sensor_id;sensor_type;location;lat;lon;timestamp;pressure;altitude;pressure_sealevel;temperature;humidity
68758;BME280;55747;51.998;4.466;2023-05-22T00:00:49;56388.94;;;-144.48;100.00
68758;BME280;55747;51.998;4.466;2023-05-22T00:03:16;56442.69;;;-144.48;100.00
68758;BME280;55747;51.998;4.466;2023-05-22T00:05:41;56424.09;;;-144.48;100.00
68758;BME280;55747;51.998;4.466;2023-05-22T00:08:07;56475.78;;;-144.48;100.00
68758;BME280;55747;51.998;4.466;2023-05-22T00:10:36;56455.09;;;-144.48;100.00
68758;BME280;55747;51.998;4.466;2023-05-22T00:13:01;56448.91;;;-144.48;100.00
68758;BME280;55747;51.998;4.466;2023-05-22T00:15:26;56455.09;;;-144.48;100.00
68758;BME280;55747;51.998;4.466;2023-05-22T00:17:51;56442.69;;;-144.48;100.00
68758;BME280;55747;51.998;4.466;2023-05-22T00:20:18;56461.31;;;-144.48;100.00
68758;BME280;55747;51.998;4.466;2023-05-22T00:22:43;56450.97;;;-144.48;100.00
68758;BME280;55747;51.998;4.466;2023-05-22T00:25:09;56436.50;;;-144.48;100.00
68758;BME280;55747;51.998;4.466;2023-05-22T00:27:34;56432.38;;;-144.48;100.00
68758;BME280;55747;51.998;4.466;2023-05-22T00:29:59;56417.91;;;-144.48;100.00
68758;BME280;55747;51.998;4.466;2023-05-22T00:32:25;56403.41;;;-144.48;100.00
68758;BME280;55747;51.998;4.466;2023-05-22T00:34:50;56432.38;;;-144.48;100.00
68758;BME280;55747;51.998;4.466;2023-05-22T00:37:16;56448.91;;;-144.48;100.00
68758;BME280;55747;51.998;4.466;2023-05-22T00:39:43;56419.97;;;-144.48;100.00
68758;BME280;55747;51.998;4.466;2023-05-22T00:42:08;56463.38;;;-144.48;100.00
68758;BME280;55747;51.998;4.466;2023-05-22T00:44:34;56419.97;;;-144.48;100.00
68758;BME280;55747;51.998;4.466;2023-05-22T00:46:59;56461.31;;;-144.48;100.00
68758;BME280;55747;51.998;4.466;2023-05-22T00:49:24;56463.38;;;-144.48;100.00
68758;BME280;55747;51.998;4.466;2023-05-22T00:51:50;56455.09;;;-144.48;100.00
68758;BME280;55747;51.998;4.466;2023-05-22T00:54:15;56463.38;;;-144.48;100.00
68758;BME280;55747;51.998;4.466;2023-05-22T00:56:40;56450.97;;;-144.48;100.00
68758;BME280;55747;51.998;4.466;2023-05-22T00:59:06;56453.03;;;-144.48;100.00
68758;BME280;55747;51.998;4.466;2023-05-22T01:01:31;56428.22;;;-144.48;100.00
68758;BME280;55747;51.998;4.466;2023-05-22T01:03:58;56444.78;;;-144.48;100.00
68758;BME280;55747;51.998;4.466;2023-05-22T01:06:23;56463.38;;;-144.48;100.00
68758;BME280;55747;51.998;4.466;2023-05-22T01:08:48;56453.03;;;-144.48;100.00
68758;BME280;55747;51.998;4.466;2023-05-22T01:11:15;56442.69;;;-144.48;100.00
68758;BME280;55747;51.998;4.466;2023-05-22T01:16:19;56422.03;;;-144.48;100.00
68758;BME280;55747;51.998;4.466;2023-05-22T01:29:41;56413.75;;;-144.48;100.00
68758;BME280;55747;51.998;4.466;2023-05-22T01:32:12;56473.72;;;-144.48;100.00
68758;BME280;55747;51.998;4.466;2023-05-22T01:34:38;56438.56;;;-144.48;100.00
68758;BME280;55747;51.998;4.466;2023-05-22T01:37:07;56465.44;;;-144.48;100.00
68758;BME280;55747;51.998;4.466;2023-05-22T01:39:33;56422.03;;;-144.48;100.00
68758;BME280;55747;51.998;4.466;2023-05-22T01:42:00;56442.69;;;-144.48;100.00
68758;BME280;55747;51.998;4.466;2023-05-22T01:44:26;56440.63;;;-144.48;100.00
68758;BME280;55747;51.998;4.466;2023-05-22T01:46:51;56426.16;;;-144.48;100.00
68758;BME280;55747;51.998;4.466;2023-05-22T01:49:16;56475.78;;;-144.48;100.00
68758;BME280;55747;51.998;4.466;2023-05-22T01:54:14;56438.56;;;-144.48;100.00
68758;BME280;55747;51.998;4.466;2023-05-22T01:59:14;56450.97;;;-144.48;100.00
68758;BME280;55747;51.998;4.466;2023-05-22T02:01:43;56479.91;;;-144.48;100.00
68758;BME280;55747;51.998;4.466;2023-05-22T02:04:12;56463.38;;;-144.48;100.00
68758;BME280;55747;51.998;4.466;2023-05-22T02:06:39;56453.03;;;-144.48;100.00
68758;BME280;55747;51.998;4.466;2023-05-22T02:09:05;56475.78;;;-144.48;100.00
68758;BME280;55747;51.998;4.466;2023-05-22T02:11:31;56444.78;;;-144.48;100.00
68758;BME280;55747;51.998;4.466;2023-05-22T02:13:57;56459.25;;;-144.48;100.00
68758;BME280;55747;51.998;4.466;2023-05-22T02:16:22;56448.91;;;-144.48;100.00
68758;BME280;55747;51.998;4.466;2023-05-22T02:18:48;56419.97;;;-144.48;100.00
68758;BME280;55747;51.998;4.466;2023-05-22T02:21:13;56430.28;;;-144.48;100.00
68758;BME280;55747;51.998;4.466;2023-05-22T02:23:38;56419.97;;;-144.48;100.00
68758;BME280;55747;51.998;4.466;2023-05-22T02:26:04;56455.09;;;-144.48;100.00
68758;BME280;55747;51.998;4.466;2023-05-22T02:28:29;56467.50;;;-144.48;100.00
68758;BME280;55747;51.998;4.466;2023-05-22T02:30:54;56434.44;;;-144.48;100.00
68758;BME280;55747;51.998;4.466;2023-05-22T02:33:20;56448.91;;;-144.48;100.00
68758;BME280;55747;51.998;4.466;2023-05-22T02:35:45;56492.31;;;-144.48;100.00
68758;BME280;55747;51.998;4.466;2023-05-22T02:38:11;56484.06;;;-144.48;100.00
68758;BME280;55747;51.998;4.466;2023-05-22T02:40:36;56440.63;;;-144.48;100.00
68758;BME280;55747;51.998;4.466;2023-05-22T02:43:01;56475.78;;;-144.48;100.00
68758;BME280;55747;51.998;4.466;2023-05-22T02:45:27;56444.78;;;-144.48;100.00
68758;BME280;55747;51.998;4.466;2023-05-22T02:47:52;56463.38;;;-144.48;100.00
68758;BME280;55747;51.998;4.466;2023-05-22T02:50:20;56434.44;;;-144.48;100.00
68758;BME280;55747;51.998;4.466;2023-05-22T02:52:45;56475.78;;;-144.48;100.00
68758;BME280;55747;51.998;4.466;2023-05-22T02:55:11;56486.13;;;-144.48;100.00
68758;BME280;55747;51.998;4.466;2023-05-22T02:57:36;56426.16;;;-144.48;100.00
68758;BME280;55747;51.998;4.466;2023-05-22T03:00:02;56467.50;;;-144.48;100.00
68758;BME280;55747;51.998;4.466;2023-05-22T03:02:28;56465.44;;;-144.48;100.00
68758;BME280;55747;51.998;4.466;2023-05-22T03:04:54;56459.25;;;-144.48;100.00
68758;BME280;55747;51.998;4.466;2023-05-22T03:07:19;56467.50;;;-144.48;100.00
68758;BME280;55747;51.998;4.466;2023-05-22T03:09:45;56467.50;;;-144.48;100.00
68758;BME280;55747;51.998;4.466;2023-05-22T03:12:10;56457.19;;;-144.48;100.00
68758;BME280;55747;51.998;4.466;2023-05-22T03:14:35;56471.66;;;-144.48;100.00
68758;BME280;55747;51.998;4.466;2023-05-22T03:17:01;56453.03;;;-144.48;100.00
68758;BME280;55747;51.998;4.466;2023-05-22T03:19:26;56473.72;;;-144.48;100.00
68758;BME280;55747;51.998;4.466;2023-05-22T03:21:51;56465.44;;;-144.48;100.00
68758;BME280;55747;51.998;4.466;2023-05-22T03:24:17;56477.84;;;-144.48;100.00
68758;BME280;55747;51.998;4.466;2023-05-22T03:26:42;56461.31;;;-144.48;100.00
68758;BME280;55747;51.998;4.466;2023-05-22T03:29:07;56461.31;;;-144.48;100.00
68758;BME280;55747;51.998;4.466;2023-05-22T03:31:33;56461.31;;;-144.48;100.00
68758;BME280;55747;51.998;4.466;2023-05-22T03:33:58;56463.38;;;-144.48;100.00
68758;BME280;55747;51.998;4.466;2023-05-22T03:36:24;56453.03;;;-144.48;100.00
68758;BME280;55747;51.998;4.466;2023-05-22T03:38:49;56479.91;;;-144.48;100.00
68758;BME280;55747;51.998;4.466;2023-05-22T03:41:14;56457.19;;;-144.48;100.00
68758;BME280;55747;51.998;4.466;2023-05-22T03:43:40;56490.25;;;-144.48;100.00
68758;BME280;55747;51.998;4.466;2023-05-22T03:46:05;56475.78;;;-144.48;100.00
68758;BME280;55747;51.998;4.466;2023-05-22T03:48:32;56484.06;;;-144.48;100.00
68758;BME280;55747;51.998;4.466;2023-05-22T03:50:57;56481.97;;;-144.48;100.00
68758;BME280;55747;51.998;4.466;2023-05-22T03:53:22;56484.06;;;-144.48;100.00
68758;BME280;55747;51.998;4.466;2023-05-22T03:55:47;56473.72;;;-144.48;100.00
68758;BME280;55747;51.998;4.466;2023-05-22T03:58:12;56488.19;;;-144.48;100.00
68758;BME280;55747;51.998;4.466;2023-05-22T04:00:38;56479.91;;;-144.48;100.00
68758;BME280;55747;51.998;4.466;2023-05-22T04:03:03;56471.66;;;-144.48;100.00
68758;BME280;55747;51.998;4.466;2023-05-22T04:05:28;56494.38;;;-144.48;100.00
68758;BME280;55747;51.998;4.466;2023-05-22T04:07:55;56473.72;;;-144.48;100.00
68758;BME280;55747;51.998;4.466;2023-05-22T04:10:20;56481.97;;;-144.48;100.00
68758;BME280;55747;51.998;4.466;2023-05-22T04:12:47;56488.19;;;-144.48;100.00
68758;BME280;55747;51.998;4.466;2023-05-22T04:15:12;56467.50;;;-144.48;100.00
68758;BME280;55747;51.998;4.466;2023-05-22T04:17:38;56465.44;;;-144.48;100.00
68758;BME280;55747;51.998;4.466;2023-05-22T04:20:03;56510.94;;;-144.48;100.00
68758;BME280;55747;51.998;4.466;2023-05-22T04:22:30;56477.84;;;-144.48;100.00
68758;BME280;55747;51.998;4.466;2023-05-22T04:24:55;56492.31;;;-144.48;100.00
68758;BME280;55747;51.998;4.466;2023-05-22T04:27:21;56457.19;;;-144.48;100.00
68758;BME280;55747;51.998;4.466;2023-05-22T04:29:46;56465.44;;;-144.48;100.00
68758;BME280;55747;51.998;4.466;2023-05-22T04:32:12;56438.56;;;-144.48;100.00
68758;BME280;55747;51.998;4.466;2023-05-22T04:34:41;56477.84;;;-144.48;100.00
68758;BME280;55747;51.998;4.466;2023-05-22T04:37:08;56467.50;;;-144.48;100.00
68758;BME280;55747;51.998;4.466;2023-05-22T04:39:34;56469.56;;;-144.48;100.00
68758;BME280;55747;51.998;4.466;2023-05-22T04:41:59;56498.53;;;-144.48;100.00
68758;BME280;55747;51.998;4.466;2023-05-22T04:44:29;56498.53;;;-144.48;100.00
68758;BME280;55747;51.998;4.466;2023-05-22T04:46:58;56496.44;;;-144.48;100.00
68758;BME280;55747;51.998;4.466;2023-05-22T04:49:23;56477.84;;;-144.48;100.00
68758;BME280;55747;51.998;4.466;2023-05-22T04:51:50;56481.97;;;-144.48;100.00
68758;BME280;55747;51.998;4.466;2023-05-22T04:54:15;56504.72;;;-144.48;100.00
68758;BME280;55747;51.998;4.466;2023-05-22T04:56:40;56488.19;;;-144.48;100.00
68758;BME280;55747;51.998;4.466;2023-05-22T04:59:06;56477.84;;;-144.48;100.00
68758;BME280;55747;51.998;4.466;2023-05-22T05:01:32;56510.94;;;-144.48;100.00
68758;BME280;55747;51.998;4.466;2023-05-22T05:03:59;56471.66;;;-144.48;100.00
68758;BME280;55747;51.998;4.466;2023-05-22T05:06:24;56484.06;;;-144.48;100.00
68758;BME280;55747;51.998;4.466;2023-05-22T05:08:50;56496.44;;;-144.48;100.00
68758;BME280;55747;51.998;4.466;2023-05-22T05:11:16;56467.50;;;-144.48;100.00
68758;BME280;55747;51.998;4.466;2023-05-22T05:13:44;56498.53;;;-144.48;100.00
68758;BME280;55747;51.998;4.466;2023-05-22T05:16:09;56513.00;;;-144.48;100.00
68758;BME280;55747;51.998;4.466;2023-05-22T05:18:36;56457.19;;;-144.48;100.00
68758;BME280;55747;51.998;4.466;2023-05-22T05:21:02;56461.31;;;-144.48;100.00
68758;BME280;55747;51.998;4.466;2023-05-22T05:23:27;56513.00;;;-144.48;100.00
68758;BME280;55747;51.998;4.466;2023-05-22T05:25:52;56411.69;;;-144.48;100.00
68758;BME280;55747;51.998;4.466;2023-05-22T05:28:18;56498.53;;;-144.48;100.00
68758;BME280;55747;51.998;4.466;2023-05-22T05:30:43;56496.44;;;-144.48;100.00
68758;BME280;55747;51.998;4.466;2023-05-22T05:33:11;56473.72;;;-144.48;100.00
68758;BME280;55747;51.998;4.466;2023-05-22T05:35:36;56471.66;;;-144.48;100.00
68758;BME280;55747;51.998;4.466;2023-05-22T05:38:02;56488.19;;;-144.48;100.00
68758;BME280;55747;51.998;4.466;2023-05-22T05:40:27;56484.06;;;-144.48;100.00
68758;BME280;55747;51.998;4.466;2023-05-22T05:42:53;56481.97;;;-144.48;100.00
68758;BME280;55747;51.998;4.466;2023-05-22T05:45:18;56479.91;;;-144.48;100.00
68758;BME280;55747;51.998;4.466;2023-05-22T05:47:43;56442.69;;;-144.48;100.00
68758;BME280;55747;51.998;4.466;2023-05-22T05:50:08;56473.72;;;-144.48;100.00
68758;BME280;55747;51.998;4.466;2023-05-22T05:52:34;56473.72;;;-144.48;100.00
68758;BME280;55747;51.998;4.466;2023-05-22T05:55:00;56486.13;;;-144.48;100.00
68758;BME280;55747;51.998;4.466;2023-05-22T05:57:26;56469.56;;;-144.48;100.00
68758;BME280;55747;51.998;4.466;2023-05-22T05:59:51;56459.25;;;-144.48;100.00
68758;BME280;55747;51.998;4.466;2023-05-22T06:02:16;56500.59;;;-144.48;100.00
68758;BME280;55747;51.998;4.466;2023-05-22T06:04:42;56479.91;;;-144.48;100.00
68758;BME280;55747;51.998;4.466;2023-05-22T06:07:07;56442.69;;;-144.48;100.00
68758;BME280;55747;51.998;4.466;2023-05-22T06:09:35;56457.19;;;-144.48;100.00
68758;BME280;55747;51.998;4.466;2023-05-22T06:12:00;56463.38;;;-144.48;100.00
68758;BME280;55747;51.998;4.466;2023-05-22T06:14:26;56479.91;;;-144.48;100.00
68758;BME280;55747;51.998;4.466;2023-05-22T06:16:51;56488.19;;;-144.48;100.00
68758;BME280;55747;51.998;4.466;2023-05-22T06:19:16;56446.84;;;-144.48;100.00
68758;BME280;55747;51.998;4.466;2023-05-22T06:21:41;56463.38;;;-144.48;100.00
68758;BME280;55747;51.998;4.466;2023-05-22T06:24:07;56461.31;;;-144.48;100.00
68758;BME280;55747;51.998;4.466;2023-05-22T06:26:32;56455.09;;;-144.48;100.00
68758;BME280;55747;51.998;4.466;2023-05-22T06:28:57;56442.69;;;-144.48;100.00
68758;BME280;55747;51.998;4.466;2023-05-22T06:31:22;56484.06;;;-144.48;100.00
68758;BME280;55747;51.998;4.466;2023-05-22T06:33:48;56461.31;;;-144.48;100.00
68758;BME280;55747;51.998;4.466;2023-05-22T06:36:14;56444.78;;;-144.48;100.00
68758;BME280;55747;51.998;4.466;2023-05-22T06:38:40;56450.97;;;-144.48;100.00
68758;BME280;55747;51.998;4.466;2023-05-22T06:41:05;56475.78;;;-144.48;100.00
68758;BME280;55747;51.998;4.466;2023-05-22T06:43:31;56459.25;;;-144.48;100.00
68758;BME280;55747;51.998;4.466;2023-05-22T06:45:57;56463.38;;;-144.48;100.00
68758;BME280;55747;51.998;4.466;2023-05-22T06:48:22;56484.06;;;-144.48;100.00
68758;BME280;55747;51.998;4.466;2023-05-22T06:50:47;56448.91;;;-144.48;100.00
68758;BME280;55747;51.998;4.466;2023-05-22T06:53:13;56457.19;;;-144.48;100.00
68758;BME280;55747;51.998;4.466;2023-05-22T06:55:38;56473.72;;;-144.48;100.00
68758;BME280;55747;51.998;4.466;2023-05-22T06:58:03;56461.31;;;-144.48;100.00
68758;BME280;55747;51.998;4.466;2023-05-22T07:00:28;56444.78;;;-144.48;100.00
68758;BME280;55747;51.998;4.466;2023-05-22T07:02:54;56459.25;;;-144.48;100.00
68758;BME280;55747;51.998;4.466;2023-05-22T07:05:19;56415.81;;;-144.48;100.00
68758;BME280;55747;51.998;4.466;2023-05-22T07:07:44;56475.78;;;-144.48;100.00
68758;BME280;55747;51.998;4.466;2023-05-22T07:10:14;56403.41;;;-144.48;97.18
68758;BME280;55747;51.998;4.466;2023-05-22T07:12:39;56424.09;;;-144.48;88.26
68758;BME280;55747;51.998;4.466;2023-05-22T07:15:05;56417.91;;;-144.48;88.09
68758;BME280;55747;51.998;4.466;2023-05-22T07:17:30;56436.50;;;-144.48;91.00
68758;BME280;55747;51.998;4.466;2023-05-22T07:19:55;56440.63;;;-144.48;92.32
68758;BME280;55747;51.998;4.466;2023-05-22T07:22:20;56450.97;;;-144.48;94.63
68758;BME280;55747;51.998;4.466;2023-05-22T07:24:46;56424.09;;;-144.48;96.63
68758;BME280;55747;51.998;4.466;2023-05-22T07:27:11;56434.44;;;-144.48;98.42
68758;BME280;55747;51.998;4.466;2023-05-22T07:29:37;56411.69;;;-144.48;99.00
68758;BME280;55747;51.998;4.466;2023-05-22T07:32:02;56428.22;;;-144.48;97.37
68758;BME280;55747;51.998;4.466;2023-05-22T07:34:27;56426.16;;;-144.48;91.45
68758;BME280;55747;51.998;4.466;2023-05-22T07:36:57;56442.69;;;-144.48;90.37
68758;BME280;55747;51.998;4.466;2023-05-22T07:39:22;56417.91;;;-144.48;87.78
68758;BME280;55747;51.998;4.466;2023-05-22T07:41:47;56422.03;;;-144.48;84.70
68758;BME280;55747;51.998;4.466;2023-05-22T07:44:16;56405.50;;;-144.48;78.71
68758;BME280;55747;51.998;4.466;2023-05-22T07:46:41;56386.88;;;-144.48;79.09
68758;BME280;55747;51.998;4.466;2023-05-22T07:49:07;56401.34;;;-144.48;72.85
68758;BME280;55747;51.998;4.466;2023-05-22T07:51:32;56388.94;;;-144.48;69.07
68758;BME280;55747;51.998;4.466;2023-05-22T07:53:57;56364.13;;;-144.48;66.46
68758;BME280;55747;51.998;4.466;2023-05-22T07:56:22;56388.94;;;-144.48;65.41
68758;BME280;55747;51.998;4.466;2023-05-22T07:58:49;56417.91;;;-144.48;66.94
68758;BME280;55747;51.998;4.466;2023-05-22T08:01:15;56382.75;;;-144.48;65.76
68758;BME280;55747;51.998;4.466;2023-05-22T08:03:41;56347.59;;;-144.48;64.02
68758;BME280;55747;51.998;4.466;2023-05-22T08:06:06;56391.00;;;-144.48;61.55
68758;BME280;55747;51.998;4.466;2023-05-22T08:08:31;56366.22;;;-144.48;61.59
68758;BME280;55747;51.998;4.466;2023-05-22T08:10:57;56372.41;;;-144.48;60.84
68758;BME280;55747;51.998;4.466;2023-05-22T08:13:22;56382.75;;;-144.48;60.76
68758;BME280;55747;51.998;4.466;2023-05-22T08:15:48;56337.25;;;-144.48;61.20
68758;BME280;55747;51.998;4.466;2023-05-22T08:18:13;56360.00;;;-144.48;59.83
68758;BME280;55747;51.998;4.466;2023-05-22T08:20:38;56360.00;;;-144.48;59.42
68758;BME280;55747;51.998;4.466;2023-05-22T08:23:03;56357.94;;;-144.48;58.82
68758;BME280;55747;51.998;4.466;2023-05-22T08:25:29;56357.94;;;-144.48;60.75
68758;BME280;55747;51.998;4.466;2023-05-22T08:27:54;56349.66;;;-144.48;59.78
68758;BME280;55747;51.998;4.466;2023-05-22T08:30:19;56345.53;;;-144.48;57.65
68758;BME280;55747;51.998;4.466;2023-05-22T08:32:44;56300.06;;;-144.48;55.19
68758;BME280;55747;51.998;4.466;2023-05-22T08:35:09;56335.19;;;-144.48;55.88
68758;BME280;55747;51.998;4.466;2023-05-22T08:37:35;56324.88;;;-144.48;56.98
68758;BME280;55747;51.998;4.466;2023-05-22T08:40:01;56345.53;;;-144.48;55.78
68758;BME280;55747;51.998;4.466;2023-05-22T08:42:26;56302.13;;;-144.48;54.90
68758;BME280;55747;51.998;4.466;2023-05-22T08:44:51;56329.00;;;-144.48;54.09
68758;BME280;55747;51.998;4.466;2023-05-22T08:47:17;56300.06;;;-144.48;51.95
68758;BME280;55747;51.998;4.466;2023-05-22T08:49:42;56287.66;;;-144.48;49.63
68758;BME280;55747;51.998;4.466;2023-05-22T08:52:13;56298.00;;;-144.48;49.44
68758;BME280;55747;51.998;4.466;2023-05-22T08:54:42;56291.78;;;-144.48;48.58
68758;BME280;55747;51.998;4.466;2023-05-22T08:57:11;56293.84;;;-144.48;48.02
68758;BME280;55747;51.998;4.466;2023-05-22T08:59:37;56266.97;;;-144.48;46.85
68758;BME280;55747;51.998;4.466;2023-05-22T09:02:03;56271.13;;;-144.48;46.52
68758;BME280;55747;51.998;4.466;2023-05-22T09:04:29;56279.38;;;-144.48;48.06
68758;BME280;55747;51.998;4.466;2023-05-22T09:06:54;56269.03;;;-144.48;46.12
68758;BME280;55747;51.998;4.466;2023-05-22T09:09:19;56273.19;;;-144.48;44.86
68758;BME280;55747;51.998;4.466;2023-05-22T09:11:45;56244.25;;;-144.48;45.96
68758;BME280;55747;51.998;4.466;2023-05-22T09:14:10;56248.38;;;-144.48;43.71
68758;BME280;55747;51.998;4.466;2023-05-22T09:16:42;56240.09;;;-144.48;42.63
68758;BME280;55747;51.998;4.466;2023-05-22T09:19:07;56258.72;;;-144.48;41.98
68758;BME280;55747;51.998;4.466;2023-05-22T09:21:34;56229.75;;;-144.48;41.17
68758;BME280;55747;51.998;4.466;2023-05-22T09:24:00;56223.56;;;-144.48;40.84
68758;BME280;55747;51.998;4.466;2023-05-22T09:26:26;56238.03;;;-144.48;42.88
68758;BME280;55747;51.998;4.466;2023-05-22T09:28:51;56244.25;;;-144.48;42.21
68758;BME280;55747;51.998;4.466;2023-05-22T09:31:16;56198.75;;;-144.48;41.32
68758;BME280;55747;51.998;4.466;2023-05-22T09:33:42;56211.16;;;-144.48;42.59
68758;BME280;55747;51.998;4.466;2023-05-22T09:36:08;56198.75;;;-144.48;40.50
68758;BME280;55747;51.998;4.466;2023-05-22T09:38:33;56198.75;;;-144.48;39.14
68758;BME280;55747;51.998;4.466;2023-05-22T09:40:58;56198.75;;;-144.48;38.86
68758;BME280;55747;51.998;4.466;2023-05-22T09:43:23;56196.69;;;-144.48;39.23
68758;BME280;55747;51.998;4.466;2023-05-22T09:46:09;56240.09;;;-144.48;40.39
68758;BME280;55747;51.998;4.466;2023-05-22T09:48:39;56223.56;;;-144.48;41.55
68758;BME280;55747;51.998;4.466;2023-05-22T09:51:05;56207.03;;;-144.48;40.28
68758;BME280;55747;51.998;4.466;2023-05-22T09:53:31;56211.16;;;-144.48;39.66
68758;BME280;55747;51.998;4.466;2023-05-22T09:55:56;56225.63;;;-144.48;41.06
68758;BME280;55747;51.998;4.466;2023-05-22T09:58:24;56215.28;;;-144.48;40.26
68758;BME280;55747;51.998;4.466;2023-05-22T10:00:51;56213.22;;;-144.48;39.63
68758;BME280;55747;51.998;4.466;2023-05-22T10:03:16;56198.75;;;-144.48;39.50
68758;BME280;55747;51.998;4.466;2023-05-22T10:05:48;56202.88;;;-144.48;39.60
68758;BME280;55747;51.998;4.466;2023-05-22T10:08:16;56204.97;;;-144.48;37.53
68758;BME280;55747;51.998;4.466;2023-05-22T10:10:42;56178.09;;;-144.48;37.33
68758;BME280;55747;51.998;4.466;2023-05-22T10:13:11;56157.41;;;-144.48;36.77
68758;BME280;55747;51.998;4.466;2023-05-22T10:15:37;56140.88;;;-144.48;34.94
68758;BME280;55747;51.998;4.466;2023-05-22T10:18:02;56136.75;;;-144.48;34.71
68758;BME280;55747;51.998;4.466;2023-05-22T10:20:28;56157.41;;;-144.48;34.56
68758;BME280;55747;51.998;4.466;2023-05-22T10:22:53;56167.75;;;-144.48;35.73
68758;BME280;55747;51.998;4.466;2023-05-22T10:25:19;56256.63;;;-144.48;41.36
68758;BME280;55747;51.998;4.466;2023-05-22T10:27:48;56211.16;;;-144.48;41.75
68758;BME280;55747;51.998;4.466;2023-05-22T10:32:44;56217.38;;;-144.48;41.42
68758;BME280;55747;51.998;4.466;2023-05-22T10:35:16;56207.03;;;-144.48;40.61
68758;BME280;55747;51.998;4.466;2023-05-22T10:37:52;56219.44;;;-144.48;41.69
68758;BME280;55747;51.998;4.466;2023-05-22T10:40:31;56235.97;;;-144.48;42.11
68758;BME280;55747;51.998;4.466;2023-05-22T10:42:58;56244.25;;;-144.48;42.21
68758;BME280;55747;51.998;4.466;2023-05-22T10:45:26;56235.97;;;-144.48;42.21
68758;BME280;55747;51.998;4.466;2023-05-22T10:48:08;56204.97;;;-144.48;41.26
68758;BME280;55747;51.998;4.466;2023-05-22T10:50:35;56252.50;;;-144.48;41.45
68758;BME280;55747;51.998;4.466;2023-05-22T10:55:48;56200.81;;;-144.48;40.82
68758;BME280;55747;51.998;4.466;2023-05-22T10:58:14;56204.97;;;-144.48;40.08
68758;BME280;55747;51.998;4.466;2023-05-22T11:00:40;56221.50;;;-144.48;41.84
68758;BME280;55747;51.998;4.466;2023-05-22T11:03:05;56229.75;;;-144.48;42.42
68758;BME280;55747;51.998;4.466;2023-05-22T11:08:45;56221.50;;;-144.48;42.09
68758;BME280;55747;51.998;4.466;2023-05-22T11:10:50;56202.88;;;-144.48;42.21
68758;BME280;55747;51.998;4.466;2023-05-22T11:13:16;56200.81;;;-144.48;42.09
68758;BME280;55747;51.998;4.466;2023-05-22T11:15:44;56233.91;;;-144.48;41.57
68758;BME280;55747;51.998;4.466;2023-05-22T11:18:10;56204.97;;;-144.48;41.67
68758;BME280;55747;51.998;4.466;2023-05-22T11:20:36;56202.88;;;-144.48;39.11
68758;BME280;55747;51.998;4.466;2023-05-22T11:23:04;56192.56;;;-144.48;37.73
68758;BME280;55747;51.998;4.466;2023-05-22T11:25:30;56196.69;;;-144.48;39.22
68758;BME280;55747;51.998;4.466;2023-05-22T11:27:56;56173.94;;;-144.48;38.21
68758;BME280;55747;51.998;4.466;2023-05-22T11:30:25;56180.16;;;-144.48;37.89
68758;BME280;55747;51.998;4.466;2023-05-22T11:32:51;56163.63;;;-144.48;37.95
68758;BME280;55747;51.998;4.466;2023-05-22T11:35:17;56209.09;;;-144.48;39.93
68758;BME280;55747;51.998;4.466;2023-05-22T11:37:43;56207.03;;;-144.48;38.86
68758;BME280;55747;51.998;4.466;2023-05-22T11:40:08;56211.16;;;-144.48;40.08
68758;BME280;55747;51.998;4.466;2023-05-22T11:42:34;56192.56;;;-144.48;39.86
68758;BME280;55747;51.998;4.466;2023-05-22T11:44:59;56198.75;;;-144.48;40.84
68758;BME280;55747;51.998;4.466;2023-05-22T11:47:28;56229.75;;;-144.48;41.05
68758;BME280;55747;51.998;4.466;2023-05-22T11:49:53;56223.56;;;-144.48;40.73
68758;BME280;55747;51.998;4.466;2023-05-22T11:52:20;56211.16;;;-144.48;41.16
68758;BME280;55747;51.998;4.466;2023-05-22T11:54:45;56198.75;;;-144.48;40.69
68758;BME280;55747;51.998;4.466;2023-05-22T11:57:11;56196.69;;;-144.48;39.75
68758;BME280;55747;51.998;4.466;2023-05-22T11:59:36;56209.09;;;-144.48;39.56
68758;BME280;55747;51.998;4.466;2023-05-22T12:02:02;56211.16;;;-144.48;40.25
68758;BME280;55747;51.998;4.466;2023-05-22T12:04:27;56171.88;;;-144.48;39.68
68758;BME280;55747;51.998;4.466;2023-05-22T12:06:52;56178.09;;;-144.48;39.43
68758;BME280;55747;51.998;4.466;2023-05-22T12:09:18;56173.94;;;-144.48;37.97
68758;BME280;55747;51.998;4.466;2023-05-22T12:11:45;56165.69;;;-144.48;37.52
68758;BME280;55747;51.998;4.466;2023-05-22T12:14:11;56163.63;;;-144.48;37.10
68758;BME280;55747;51.998;4.466;2023-05-22T12:16:36;56161.53;;;-144.48;37.29
68758;BME280;55747;51.998;4.466;2023-05-22T12:19:08;56167.75;;;-144.48;37.73
68758;BME280;55747;51.998;4.466;2023-05-22T12:21:34;56147.06;;;-144.48;38.28
68758;BME280;55747;51.998;4.466;2023-05-22T12:24:03;56219.44;;;-144.48;39.14
68758;BME280;55747;51.998;4.466;2023-05-22T12:26:29;56147.06;;;-144.48;39.06
68758;BME280;55747;51.998;4.466;2023-05-22T12:28:56;56167.75;;;-144.48;37.70
68758;BME280;55747;51.998;4.466;2023-05-22T12:31:21;56132.59;;;-144.48;36.20
68758;BME280;55747;51.998;4.466;2023-05-22T12:33:47;56155.34;;;-144.48;35.57
68758;BME280;55747;51.998;4.466;2023-05-22T12:36:12;56165.69;;;-144.48;35.62
68758;BME280;55747;51.998;4.466;2023-05-22T12:38:37;56140.88;;;-144.48;35.30
68758;BME280;55747;51.998;4.466;2023-05-22T12:41:06;56147.06;;;-144.48;35.66
68758;BME280;55747;51.998;4.466;2023-05-22T12:43:31;56124.34;;;-144.48;35.84
68758;BME280;55747;51.998;4.466;2023-05-22T12:45:56;56147.06;;;-144.48;35.53
68758;BME280;55747;51.998;4.466;2023-05-22T12:48:22;56159.47;;;-144.48;34.56
68758;BME280;55747;51.998;4.466;2023-05-22T12:50:47;56163.63;;;-144.48;35.79
68758;BME280;55747;51.998;4.466;2023-05-22T12:53:12;56163.63;;;-144.48;36.27
68758;BME280;55747;51.998;4.466;2023-05-22T12:55:38;56153.28;;;-144.48;37.59